Las Mesitas, Colorado
Current Conditions -  °F | °C
As of 3:52 PM on Saturday 20 Dec 2014 (Local Time) from KALS Reporting Station
Overcast Overcast  
Wind Chill: 37°   Ceiling: 8500
Heat Index: 37°   Visibility: 10mi
Dew Point: 15°   Wind: 0mph
Humidity: 41%   Direction: NA
Pressure: 30.04"   Gusts: NA
Location:  37.1816°N, 106.262°W
Report Text: KALS 202252Z AUTO 00000KT 10SM FEW070 OVC085 03/M09 A3004 RMK AO2 SLP208 T00281094
Loading
Personal Weather Stations






























Interactive Weather Map New forecast layout! Learn more

10-Day Weather Forecast

Advertisements
Track Severe Weather on mobile